createdAt,value
2024-02-23T00:01:50.248Z,0
2024-02-23T00:11:49.413Z,0
2024-02-23T00:21:49.617Z,0
2024-02-23T00:31:48.784Z,0
2024-02-23T00:41:47.975Z,0
2024-02-23T00:51:47.125Z,0
2024-02-23T01:01:46.382Z,0
2024-02-23T01:11:45.537Z,0
2024-02-23T01:21:44.681Z,0
2024-02-23T01:31:43.856Z,0
2024-02-23T01:41:43.059Z,0
2024-02-23T01:51:42.210Z,0
2024-02-23T02:01:41.413Z,0
2024-02-23T02:11:40.588Z,0
2024-02-23T02:21:39.771Z,0
2024-02-23T02:31:38.926Z,0
2024-02-23T02:41:38.126Z,0
2024-02-23T02:51:37.282Z,0
2024-02-23T03:02:04.721Z,0
2024-02-23T03:12:03.890Z,0
2024-02-23T03:22:03.072Z,0
2024-02-23T03:32:02.238Z,0
2024-02-23T03:42:01.425Z,0
2024-02-23T03:52:00.589Z,0
2024-02-23T04:01:59.832Z,0
2024-02-23T04:11:59.027Z,0
2024-02-23T04:21:58.288Z,0
2024-02-23T04:31:57.527Z,0
2024-02-23T04:41:56.820Z,0
2024-02-23T04:51:56.045Z,0
2024-02-23T05:01:55.309Z,0
2024-02-23T05:11:54.497Z,0
2024-02-23T05:21:53.653Z,0
2024-02-23T05:31:52.899Z,0
2024-02-23T05:41:53.236Z,0
2024-02-23T05:51:52.373Z,0
2024-02-23T06:01:51.645Z,0
2024-02-23T06:11:50.783Z,0
2024-02-23T06:21:49.935Z,0
2024-02-23T06:31:49.087Z,0
2024-02-23T06:41:48.328Z,0
2024-02-23T06:51:47.444Z,0
2024-02-23T07:01:46.652Z,0
2024-02-23T07:11:45.916Z,0
2024-02-23T07:21:45.054Z,0
2024-02-23T07:31:44.210Z,0
2024-02-23T07:41:43.404Z,0
2024-02-23T07:51:42.554Z,0
2024-02-23T08:01:41.784Z,0
2024-02-23T08:11:40.973Z,0
2024-02-23T08:21:40.092Z,0
2024-02-23T08:31:41.222Z,0
2024-02-23T08:41:38.510Z,0
2024-02-23T08:51:37.615Z,0
2024-02-23T09:02:04.917Z,0
2024-02-23T09:12:04.221Z,98.1
2024-02-23T09:22:03.207Z,100.9
2024-02-23T09:32:02.396Z,104.4
2024-02-23T09:42:01.565Z,107.3
2024-02-23T09:52:00.714Z,109.1
2024-02-23T10:01:59.967Z,109.6
2024-02-23T10:11:59.217Z,109.3
2024-02-23T10:21:58.464Z,108.8
2024-02-23T10:31:57.739Z,108
2024-02-23T10:41:56.976Z,108.3
2024-02-23T10:51:56.366Z,109.4
2024-02-23T11:01:55.513Z,110.9
2024-02-23T11:11:54.740Z,112.9
2024-02-23T11:21:53.826Z,114.9
2024-02-23T11:31:53.145Z,116.8
2024-02-23T11:41:52.177Z,118.7
2024-02-23T11:51:51.334Z,120.8
2024-02-23T12:01:50.539Z,121.8
2024-02-23T12:11:49.791Z,122.2
2024-02-23T12:21:48.979Z,120.9
2024-02-23T12:31:48.062Z,118.1
2024-02-23T12:41:47.306Z,115.9
2024-02-23T12:51:46.420Z,113.8
2024-02-23T13:01:46.752Z,112.7
2024-02-23T13:11:45.805Z,113.1
2024-02-23T13:21:44.870Z,114.5
2024-02-23T13:31:44.017Z,116.1
2024-02-23T13:41:43.264Z,117.5
2024-02-23T13:51:42.379Z,118.5
2024-02-23T14:01:41.581Z,118.8
2024-02-23T14:11:40.824Z,119.3
2024-02-23T14:21:39.937Z,119.3
2024-02-23T14:31:39.098Z,118.8
2024-02-23T14:41:38.369Z,117.5
2024-02-23T14:51:37.449Z,114.6
2024-02-23T15:02:04.994Z,110.4
2024-02-23T15:12:04.155Z,105.3
2024-02-23T15:22:03.354Z,101.5
2024-02-23T15:32:02.508Z,101.5
2024-02-23T15:42:01.679Z,101.5
2024-02-23T15:52:01.422Z,101.5
2024-02-23T16:02:00.061Z,101.5
2024-02-23T16:11:59.510Z,101.5
2024-02-23T16:21:58.541Z,101.5
2024-02-23T16:31:59.224Z,101.5
2024-02-23T16:41:58.400Z,101.5
2024-02-23T16:51:57.557Z,101.5
2024-02-23T17:01:58.445Z,101.5
2024-02-23T17:11:56.005Z,101.5
2024-02-23T17:21:55.127Z,101.5
2024-02-23T17:31:54.282Z,101.5
2024-02-23T17:41:53.587Z,101.5
2024-02-23T17:51:52.644Z,101.5
2024-02-23T18:01:51.853Z,101.5
2024-02-23T18:11:51.048Z,101.5
2024-02-23T18:21:50.219Z,101.5
2024-02-23T18:31:49.382Z,101.5
2024-02-23T18:41:48.629Z,101.5
2024-02-23T18:51:47.740Z,101.5
2024-02-23T19:01:46.949Z,101.5
2024-02-23T19:11:46.207Z,101.5
2024-02-23T19:21:45.318Z,101.5
2024-02-23T19:31:44.470Z,101.5
2024-02-23T19:41:43.727Z,101.5
2024-02-23T19:51:42.835Z,101.5
2024-02-23T20:01:42.051Z,101.5
2024-02-23T20:11:41.273Z,101.5
2024-02-23T20:21:40.411Z,101.5
2024-02-23T20:31:39.609Z,101.5
2024-02-23T20:41:40.353Z,101.5
2024-02-23T20:51:38.089Z,101.5
2024-02-23T21:02:05.116Z,0
2024-02-23T21:12:04.317Z,0
2024-02-23T21:22:03.467Z,0
2024-02-23T21:32:02.652Z,0
2024-02-23T21:42:01.834Z,0
2024-02-23T21:52:00.997Z,0
2024-02-23T22:02:00.193Z,0
2024-02-23T22:11:59.559Z,0
2024-02-23T22:21:58.709Z,0
2024-02-23T22:31:57.940Z,0
2024-02-23T22:41:57.279Z,0
2024-02-23T22:51:56.464Z,0
2024-02-23T23:01:55.709Z,0
2024-02-23T23:11:54.978Z,0
2024-02-23T23:21:54.074Z,0
2024-02-23T23:31:53.246Z,0
2024-02-23T23:41:52.473Z,0
2024-02-23T23:51:56.308Z,0
